Time;durP1;ratioP1;P1;durP2;ratioP2;P2;SDS_P1;SDS_P2;PMS_P1;PMS_P2;Temp;Humidity;BMP_temperature;BMP_pressure;BME280_temperature;BME280_humidity;BME280_pressure;Samples;Min_cycle;Max_cycle;Signal;HPM_P1;HPM_P2
2022/04/13 00:02:05;;;;;;;12.63;8.60;;;8.80;99.90;;;;;;5013017;28;20570;-49
2022/04/13 00:04:31;;;;;;;14.13;8.80;;;8.90;99.90;;;;;;5013295;28;20530;-49
2022/04/13 00:06:58;;;;;;;11.00;8.50;;;8.80;99.90;;;;;;5013121;28;20546;-49
2022/04/13 00:09:25;;;;;;;11.53;8.73;;;8.80;99.90;;;;;;5013134;28;20467;-50
2022/04/13 00:11:54;;;;;;;11.40;9.30;;;8.80;99.90;;;;;;5013348;28;20514;-49
2022/04/13 00:14:22;;;;;;;10.03;9.03;;;8.80;99.90;;;;;;5013488;28;20451;-50
2022/04/13 00:16:50;;;;;;;13.87;10.20;;;8.70;99.90;;;;;;5012896;28;20989;-50
2022/04/13 00:19:17;;;;;;;16.53;9.10;;;8.70;99.90;;;;;;5012987;28;20538;-50
2022/04/13 00:21:44;;;;;;;12.60;9.53;;;8.80;99.90;;;;;;5012990;28;20458;-50
2022/04/13 00:24:13;;;;;;;15.07;9.23;;;8.80;99.90;;;;;;5013337;28;20542;-50
2022/04/13 00:26:39;;;;;;;12.00;8.87;;;8.70;99.90;;;;;;5012571;28;20539;-50
2022/04/13 00:29:06;;;;;;;15.70;9.40;;;8.70;99.90;;;;;;5012847;28;20526;-50
2022/04/13 00:31:33;;;;;;;13.47;9.77;;;8.60;99.90;;;;;;5013051;28;20531;-50
2022/04/13 00:34:00;;;;;;;10.40;8.93;;;8.60;99.90;;;;;;5012894;28;20530;-51
2022/04/13 00:36:27;;;;;;;16.93;9.57;;;8.60;99.90;;;;;;5012728;28;20554;-50
2022/04/13 00:38:53;;;;;;;13.10;9.27;;;8.60;99.90;;;;;;5012908;28;20535;-50
2022/04/13 00:41:21;;;;;;;14.87;10.00;;;8.60;99.90;;;;;;5013022;28;20864;-49
2022/04/13 00:44:02;;;;;;;10.67;8.20;;;8.60;99.90;;;;;;5012664;28;20475;-49
2022/04/13 00:46:28;;;;;;;14.00;9.67;;;8.60;99.90;;;;;;5012707;28;21071;-49
2022/04/13 00:48:56;;;;;;;14.50;10.40;;;8.50;99.90;;;;;;5012288;28;20451;-49
2022/04/13 00:51:24;;;;;;;15.20;10.13;;;8.50;99.90;;;;;;5012814;28;21121;-49
2022/04/13 00:53:52;;;;;;;14.73;9.60;;;8.50;99.90;;;;;;5012836;28;20526;-49
2022/04/13 00:56:21;;;;;;;18.60;12.30;;;8.50;99.90;;;;;;5012616;28;20499;-49
2022/04/13 00:58:50;;;;;;;12.60;9.70;;;8.50;99.90;;;;;;5011950;28;21033;-49
2022/04/13 01:01:16;;;;;;;12.63;9.50;;;8.50;99.90;;;;;;5012005;28;20527;-49
2022/04/13 01:03:44;;;;;;;12.33;9.80;;;8.50;99.90;;;;;;5012414;28;20583;-49
2022/04/13 01:06:11;;;;;;;18.37;9.90;;;8.50;99.90;;;;;;5012589;28;20550;-49
2022/04/13 01:08:39;;;;;;;17.30;9.93;;;8.50;99.90;;;;;;5012144;28;20530;-49
2022/04/13 01:11:06;;;;;;;14.93;10.03;;;8.40;99.90;;;;;;5012434;28;20531;-49
2022/04/13 01:13:33;;;;;;;13.00;9.80;;;8.40;99.90;;;;;;5012145;28;20471;-50
2022/04/13 01:15:59;;;;;;;16.93;10.00;;;8.30;99.90;;;;;;5011701;28;20522;-49
2022/04/13 01:18:26;;;;;;;13.47;10.20;;;8.20;99.90;;;;;;5005833;28;20542;-49
2022/04/13 01:20:54;;;;;;;16.13;10.10;;;8.20;99.90;;;;;;5030729;28;20526;-48
2022/04/13 01:23:23;;;;;;;14.57;9.60;;;8.20;99.90;;;;;;5031128;28;21016;-49
2022/04/13 01:25:50;;;;;;;12.40;10.03;;;8.10;99.90;;;;;;5020370;28;20475;-48
2022/04/13 01:28:17;;;;;;;12.50;9.73;;;8.10;99.90;;;;;;5011950;28;20626;-49
2022/04/13 01:30:44;;;;;;;12.80;9.80;;;8.00;99.90;;;;;;4997108;28;20528;-49
2022/04/13 01:33:10;;;;;;;19.67;11.43;;;8.00;99.90;;;;;;5004967;28;20530;-49
2022/04/13 01:35:37;;;;;;;12.73;9.20;;;8.10;99.90;;;;;;5012130;28;20531;-49
2022/04/13 01:38:04;;;;;;;11.23;9.40;;;8.00;99.90;;;;;;5011805;28;20491;-49
2022/04/13 01:40:32;;;;;;;18.93;10.30;;;8.00;99.90;;;;;;5012087;28;20486;-49
2022/04/13 01:42:59;;;;;;;17.93;10.90;;;7.90;99.90;;;;;;5011824;28;20476;-50
2022/04/13 01:45:25;;;;;;;14.57;9.37;;;7.90;99.90;;;;;;5012017;28;20530;-50
2022/04/13 01:47:53;;;;;;;16.77;11.20;;;7.80;99.90;;;;;;5011359;28;20542;-50
2022/04/13 01:50:21;;;;;;;15.63;10.13;;;7.80;99.90;;;;;;5011672;28;20542;-50
2022/04/13 01:52:48;;;;;;;18.53;10.57;;;7.70;99.90;;;;;;5010776;28;20534;-49
2022/04/13 01:55:15;;;;;;;14.10;9.97;;;7.60;99.90;;;;;;5009944;28;20458;-50
2022/04/13 01:57:44;;;;;;;20.07;9.73;;;7.60;99.90;;;;;;4992028;28;21024;-50
2022/04/13 02:00:13;;;;;;;13.10;10.30;;;7.50;99.90;;;;;;4992102;28;20958;-49
2022/04/13 02:02:40;;;;;;;18.53;10.83;;;7.60;99.90;;;;;;4992117;28;20508;-49
2022/04/13 02:05:07;;;;;;;15.60;10.20;;;7.60;99.90;;;;;;4994656;28;20513;-49
2022/04/13 02:07:34;;;;;;;16.70;11.73;;;7.50;99.90;;;;;;5011595;28;20526;-49
2022/04/13 02:10:00;;;;;;;18.33;10.60;;;7.50;99.90;;;;;;5011962;28;20510;-49
2022/04/13 02:12:27;;;;;;;15.57;10.97;;;7.50;99.90;;;;;;5011965;28;20498;-49
2022/04/13 02:14:55;;;;;;;13.03;10.13;;;7.40;99.90;;;;;;5011722;28;20510;-49
2022/04/13 02:17:22;;;;;;;13.30;9.40;;;7.40;99.90;;;;;;4993044;28;20523;-53
2022/04/13 02:19:48;;;;;;;12.50;10.50;;;7.40;99.90;;;;;;4998704;28;20479;-53
2022/04/13 02:22:15;;;;;;;14.47;10.93;;;7.40;99.90;;;;;;5011681;28;20957;-52
2022/04/13 02:24:41;;;;;;;13.20;10.47;;;7.30;99.90;;;;;;5014994;28;20897;-53
2022/04/13 02:27:09;;;;;;;13.37;10.97;;;7.30;99.90;;;;;;4998097;28;20514;-53
2022/04/13 02:29:36;;;;;;;18.87;10.53;;;7.30;99.90;;;;;;5014292;28;20459;-53
2022/04/13 02:32:05;;;;;;;16.87;10.50;;;7.30;99.90;;;;;;5015321;28;20963;-53
2022/04/13 02:34:32;;;;;;;11.63;9.97;;;7.30;99.90;;;;;;5014882;28;20586;-53
2022/04/13 02:36:58;;;;;;;14.43;9.90;;;7.30;99.90;;;;;;4999988;28;20526;-53
2022/04/13 02:39:25;;;;;;;16.03;9.70;;;7.20;99.90;;;;;;4995445;28;20478;-52
2022/04/13 02:41:51;;;;;;;15.90;11.20;;;7.20;99.90;;;;;;4995570;28;20540;-52
2022/04/13 02:44:18;;;;;;;15.70;10.47;;;7.20;99.90;;;;;;4995349;28;20523;-53
2022/04/13 02:46:44;;;;;;;13.10;10.70;;;7.10;99.90;;;;;;5006427;28;20571;-53
2022/04/13 02:49:12;;;;;;;16.03;10.63;;;7.10;99.90;;;;;;5014648;28;20480;-53
2022/04/13 02:51:39;;;;;;;14.83;10.30;;;7.10;99.90;;;;;;5014862;28;20933;-53
2022/04/13 02:54:06;;;;;;;19.03;11.27;;;7.10;99.90;;;;;;5011680;28;20476;-54
2022/04/13 02:56:32;;;;;;;21.87;10.57;;;7.10;99.90;;;;;;4995153;28;20503;-53
2022/04/13 02:58:59;;;;;;;14.23;10.80;;;7.10;99.90;;;;;;4994908;28;20484;-53
2022/04/13 03:01:25;;;;;;;17.27;9.43;;;7.00;1.40;;;;;;4997905;28;20472;-53
2022/04/13 03:03:52;;;;;;;14.97;10.47;;;7.00;99.90;;;;;;5014698;28;20522;-52
2022/04/13 03:06:20;;;;;;;13.77;10.03;;;7.00;99.90;;;;;;5014824;28;20917;-53
2022/04/13 03:08:46;;;;;;;34.83;10.10;;;7.00;99.90;;;;;;5014353;28;21056;-53
2022/04/13 03:11:13;;;;;;;16.00;10.47;;;7.00;99.90;;;;;;5014653;28;20479;-52
2022/04/13 03:13:40;;;;;;;17.70;11.40;;;7.10;99.90;;;;;;5014458;28;20436;-53
2022/04/13 03:16:06;;;;;;;13.17;9.90;;;7.00;99.90;;;;;;5013651;28;20487;-53
2022/04/13 03:18:33;;;;;;;13.03;10.23;;;7.00;99.90;;;;;;5014369;28;20485;-53
2022/04/13 03:21:00;;;;;;;11.67;10.43;;;6.90;99.90;;;;;;5032703;28;20846;-53
2022/04/13 03:23:28;;;;;;;12.57;10.20;;;6.90;99.90;;;;;;5034046;28;20519;-53
2022/04/13 03:25:54;;;;;;;13.87;10.27;;;6.90;99.90;;;;;;4998599;28;21000;-52
2022/04/13 03:28:23;;;;;;;14.77;10.90;;;6.90;99.90;;;;;;4994277;28;20480;-53
2022/04/13 03:30:50;;;;;;;16.57;10.90;;;6.90;99.90;;;;;;5008181;28;20546;-53
2022/04/13 03:33:17;;;;;;;12.60;9.80;;;6.80;99.90;;;;;;5014308;28;20451;-52
2022/04/13 03:35:44;;;;;;;15.47;11.17;;;6.80;99.90;;;;;;5014008;28;20452;-53
2022/04/13 03:38:11;;;;;;;13.23;9.70;;;6.80;99.90;;;;;;5012546;28;20447;-53
2022/04/13 03:40:38;;;;;;;17.13;10.60;;;6.80;99.90;;;;;;5013860;28;20869;-52
2022/04/13 03:43:05;;;;;;;12.90;9.40;;;6.80;99.90;;;;;;5013660;28;20561;-53
2022/04/13 03:45:32;;;;;;;16.70;11.97;;;6.70;99.90;;;;;;5013812;28;20491;-53
2022/04/13 03:47:58;;;;;;;15.70;10.70;;;6.70;99.90;;;;;;5013184;28;20471;-53
2022/04/13 03:50:25;;;;;;;15.33;11.43;;;6.70;99.90;;;;;;5013895;28;20476;-53
2022/04/13 03:52:52;;;;;;;17.90;10.87;;;6.80;99.90;;;;;;5013593;28;20475;-53
2022/04/13 03:55:22;;;;;;;20.23;10.67;;;6.80;99.90;;;;;;5013692;28;20505;-53
2022/04/13 03:57:50;;;;;;;12.93;10.20;;;6.70;99.90;;;;;;5013237;28;20562;-52
2022/04/13 04:00:17;;;;;;;15.57;11.10;;;6.70;99.90;;;;;;5013767;28;20480;-53
2022/04/13 04:02:44;;;;;;;14.97;10.27;;;6.70;99.90;;;;;;5013688;28;20484;-53
2022/04/13 04:05:11;;;;;;;16.47;10.27;;;6.60;99.90;;;;;;5013293;28;20924;-53
2022/04/13 04:07:38;;;;;;;13.40;10.20;;;6.60;99.90;;;;;;5013183;28;20499;-54
2022/04/13 04:10:06;;;;;;;14.23;10.50;;;6.60;99.90;;;;;;5013307;28;20501;-53
2022/04/13 04:12:37;;;;;;;15.13;10.53;;;6.60;99.90;;;;;;5013248;28;20487;-53
2022/04/13 04:15:06;;;;;;;13.90;10.47;;;6.60;99.90;;;;;;5013500;28;20451;-53
2022/04/13 04:17:33;;;;;;;20.03;11.37;;;6.60;99.90;;;;;;5012844;28;20475;-52
2022/04/13 04:19:59;;;;;;;16.00;11.10;;;6.60;99.90;;;;;;5013281;28;20475;-53
2022/04/13 04:22:26;;;;;;;17.47;12.17;;;6.50;99.90;;;;;;5013092;28;20965;-53
2022/04/13 04:24:53;;;;;;;14.00;11.30;;;6.60;99.90;;;;;;5013395;28;20538;-52
2022/04/13 04:27:20;;;;;;;15.67;10.97;;;6.50;99.90;;;;;;5012860;28;20889;-53
2022/04/13 04:29:47;;;;;;;15.87;10.20;;;6.60;99.90;;;;;;5012477;28;21019;-52
2022/04/13 04:32:14;;;;;;;15.60;11.37;;;6.60;99.90;;;;;;5012768;28;21008;-52
2022/04/13 04:34:41;;;;;;;13.13;9.93;;;6.50;99.90;;;;;;5012925;28;20491;-52
2022/04/13 04:37:07;;;;;;;21.50;11.93;;;6.50;99.90;;;;;;5012778;28;20498;-51
2022/04/13 04:39:34;;;;;;;14.60;10.37;;;6.60;99.90;;;;;;5012631;28;20480;-52
2022/04/13 04:42:02;;;;;;;14.43;10.23;;;6.60;99.90;;;;;;5013091;28;20475;-51
2022/04/13 04:44:28;;;;;;;17.87;10.60;;;6.60;99.90;;;;;;5012784;28;20483;-51
2022/04/13 04:46:55;;;;;;;18.13;10.10;;;6.60;99.90;;;;;;5012862;28;20502;-52
2022/04/13 04:49:23;;;;;;;16.83;10.83;;;6.60;99.90;;;;;;5012132;28;20518;-51
2022/04/13 04:51:49;;;;;;;22.07;11.40;;;6.60;99.90;;;;;;5012571;28;20475;-52
2022/04/13 04:54:16;;;;;;;15.20;10.63;;;6.60;99.90;;;;;;5012557;28;20476;-51
2022/04/13 04:56:42;;;;;;;17.90;10.53;;;6.60;99.90;;;;;;5012701;28;20913;-52
2022/04/13 04:59:09;;;;;;;18.87;11.23;;;6.70;99.90;;;;;;5012483;28;20483;-51
2022/04/13 05:01:35;;;;;;;19.70;11.60;;;6.70;99.90;;;;;;5012675;28;20450;-52
2022/04/13 05:04:02;;;;;;;18.97;10.83;;;6.70;99.90;;;;;;5012440;28;20533;-51
2022/04/13 05:06:31;;;;;;;12.47;10.27;;;6.80;99.90;;;;;;5012291;28;20562;-52
2022/04/13 05:08:57;;;;;;;17.43;10.60;;;6.80;99.90;;;;;;5012240;28;20463;-52
2022/04/13 05:11:24;;;;;;;22.93;11.03;;;6.80;99.90;;;;;;5012532;28;20483;-52
2022/04/13 05:13:51;;;;;;;16.70;11.37;;;6.80;99.90;;;;;;5012022;28;20478;-52
2022/04/13 05:16:20;;;;;;;17.07;11.80;;;6.90;99.90;;;;;;4996460;28;20481;-51
2022/04/13 05:18:46;;;;;;;28.13;12.47;;;6.90;99.90;;;;;;4992228;28;20484;-51
2022/04/13 05:21:14;;;;;;;13.90;10.73;;;7.00;99.90;;;;;;5020691;28;20466;-51
2022/04/13 05:23:42;;;;;;;22.77;12.03;;;7.00;99.90;;;;;;5019232;28;20487;-51
2022/04/13 05:26:09;;;;;;;17.50;11.33;;;7.00;99.90;;;;;;5017899;28;20479;-52
2022/04/13 05:28:35;;;;;;;17.30;12.27;;;7.10;99.90;;;;;;5017353;28;20455;-51
2022/04/13 05:31:02;;;;;;;17.40;11.50;;;7.10;99.90;;;;;;5016865;28;20455;-58
2022/04/13 05:33:28;;;;;;;15.83;11.50;;;7.10;99.90;;;;;;5012080;28;20969;-51
2022/04/13 05:35:55;;;;;;;22.03;9.90;;;7.20;99.90;;;;;;5011845;28;21048;-51
2022/04/13 05:38:21;;;;;;;18.30;10.63;;;7.30;99.90;;;;;;5011872;28;20984;-51
2022/04/13 05:40:49;;;;;;;15.90;11.10;;;7.40;99.90;;;;;;5012259;28;20482;-51
2022/04/13 05:43:16;;;;;;;13.37;10.73;;;7.40;99.90;;;;;;5012349;28;20443;-52
2022/04/13 05:45:43;;;;;;;15.77;10.67;;;7.50;99.90;;;;;;5011843;28;20486;-52
2022/04/13 05:48:09;;;;;;;18.30;11.00;;;7.50;99.90;;;;;;5011440;28;20506;-52
2022/04/13 05:50:36;;;;;;;14.20;10.60;;;7.60;99.90;;;;;;5011624;28;20962;-52
2022/04/13 05:53:03;;;;;;;17.10;11.03;;;7.70;99.90;;;;;;5011880;28;20484;-51
2022/04/13 05:55:29;;;;;;;19.17;11.73;;;7.80;99.90;;;;;;5011966;28;20478;-51
2022/04/13 05:57:57;;;;;;;16.60;11.80;;;8.00;99.90;;;;;;5011634;28;21001;-53
2022/04/13 06:00:24;;;;;;;20.10;11.07;;;8.10;99.90;;;;;;5011911;28;20482;-51
2022/04/13 06:02:50;;;;;;;16.10;10.60;;;8.20;99.90;;;;;;5016169;28;20447;-52
2022/04/13 06:05:17;;;;;;;14.70;12.13;;;8.20;99.90;;;;;;5015713;28;20487;-51
2022/04/13 06:07:43;;;;;;;17.40;11.20;;;8.40;99.90;;;;;;5015558;28;20913;-52
2022/04/13 06:10:11;;;;;;;24.40;12.43;;;8.60;99.90;;;;;;5015798;28;20483;-52
2022/04/13 06:12:37;;;;;;;16.70;11.30;;;8.70;99.90;;;;;;5015695;28;20498;-51
2022/04/13 06:15:07;;;;;;;16.00;11.37;;;9.00;99.90;;;;;;5015577;28;20443;-52
2022/04/13 06:17:34;;;;;;;16.43;10.93;;;9.10;99.90;;;;;;5015024;28;20969;-50
2022/04/13 06:20:01;;;;;;;19.20;11.20;;;9.20;99.90;;;;;;5015571;28;20509;-51
2022/04/13 06:22:31;;;;;;;19.13;11.93;;;9.50;99.90;;;;;;5015264;28;20451;-52
2022/04/13 06:24:57;;;;;;;15.77;11.03;;;9.70;99.90;;;;;;5015369;28;20621;-52
2022/04/13 06:27:24;;;;;;;23.23;12.77;;;9.80;99.90;;;;;;5015212;28;20499;-52
2022/04/13 06:29:50;;;;;;;19.57;11.33;;;9.60;99.90;;;;;;5015477;28;20451;-51
2022/04/13 06:32:18;;;;;;;15.27;11.53;;;9.80;99.90;;;;;;5015260;28;20483;-51
2022/04/13 06:34:45;;;;;;;24.03;12.00;;;10.00;99.90;;;;;;5015460;28;20488;-51
2022/04/13 06:37:11;;;;;;;15.33;11.03;;;10.10;99.90;;;;;;5015085;28;21001;-52
2022/04/13 06:39:38;;;;;;;17.57;12.17;;;10.30;99.90;;;;;;5014753;28;20853;-52
2022/04/13 06:42:05;;;;;;;16.53;11.67;;;10.20;99.90;;;;;;5015107;28;20980;-52
2022/04/13 06:44:32;;;;;;;21.10;11.40;;;10.30;99.90;;;;;;5015255;28;20526;-51
2022/04/13 06:46:59;;;;;;;17.47;11.50;;;10.50;99.90;;;;;;5014962;28;20503;-51
2022/04/13 06:49:27;;;;;;;19.00;11.50;;;10.50;99.90;;;;;;4997333;28;20456;-51
2022/04/13 06:51:53;;;;;;;18.30;10.40;;;10.50;99.90;;;;;;5010200;28;20475;-51
2022/04/13 06:54:20;;;;;;;28.90;10.83;;;10.60;99.90;;;;;;5014959;28;20471;-51
2022/04/13 06:56:46;;;;;;;15.67;11.70;;;10.60;99.90;;;;;;5014717;28;21294;-51
2022/04/13 06:59:13;;;;;;;16.43;11.40;;;10.80;99.90;;;;;;5014890;28;20451;-52
2022/04/13 07:01:40;;;;;;;16.87;11.47;;;10.80;99.90;;;;;;5015187;28;20490;-52
2022/04/13 07:04:06;;;;;;;17.27;10.50;;;10.70;99.90;;;;;;5010173;28;20525;-52
2022/04/13 07:06:34;;;;;;;17.47;10.43;;;11.00;99.90;;;;;;4995064;28;20547;-52
2022/04/13 07:09:01;;;;;;;14.97;11.47;;;11.20;99.90;;;;;;4994788;28;21205;-52
2022/04/13 07:11:27;;;;;;;13.93;9.70;;;11.40;99.90;;;;;;4994687;28;20480;-52
2022/04/13 07:13:55;;;;;;;18.70;10.30;;;11.70;99.90;;;;;;4995024;28;20959;-52
2022/04/13 07:16:21;;;;;;;16.13;11.20;;;11.90;99.90;;;;;;4994915;28;20485;-52
2022/04/13 07:18:48;;;;;;;17.90;11.70;;;11.90;99.90;;;;;;4994758;28;20472;-52
2022/04/13 07:21:14;;;;;;;20.43;10.30;;;11.90;99.90;;;;;;5002401;28;20920;-51
2022/04/13 07:23:42;;;;;;;16.17;10.07;;;12.00;99.90;;;;;;4994615;28;20974;-52
2022/04/13 07:26:09;;;;;;;14.83;9.60;;;12.00;99.90;;;;;;4994553;28;21017;-52
2022/04/13 07:28:35;;;;;;;32.33;11.90;;;11.90;99.90;;;;;;5000034;28;20451;-52
2022/04/13 07:31:02;;;;;;;17.53;11.60;;;12.10;99.90;;;;;;5014460;28;20467;-52
2022/04/13 07:33:29;;;;;;;22.67;13.10;;;12.30;99.90;;;;;;5014117;28;20476;-52
2022/04/13 07:35:55;;;;;;;22.30;12.03;;;12.60;99.90;;;;;;5014044;28;20966;-52
2022/04/13 07:38:22;;;;;;;18.43;11.17;;;12.60;99.90;;;;;;5013940;28;20471;-52
2022/04/13 07:40:49;;;;;;;16.50;11.50;;;12.90;99.90;;;;;;5014317;28;20483;-52
2022/04/13 07:43:16;;;;;;;16.40;11.60;;;12.90;99.90;;;;;;5013978;28;20490;-52
2022/04/13 07:45:43;;;;;;;15.57;10.97;;;13.00;99.90;;;;;;5013830;28;20561;-52
2022/04/13 07:48:10;;;;;;;18.27;10.90;;;13.20;99.90;;;;;;5012460;28;20490;-51
2022/04/13 07:50:36;;;;;;;17.90;11.10;;;13.60;99.90;;;;;;4994295;28;20476;-52
2022/04/13 07:53:03;;;;;;;14.83;11.20;;;13.60;99.90;;;;;;4994083;28;20902;-51
2022/04/13 07:55:29;;;;;;;18.77;10.73;;;13.80;99.90;;;;;;4994334;28;20476;-52
2022/04/13 07:57:57;;;;;;;15.33;10.83;;;13.90;99.90;;;;;;4993984;28;20554;-51
2022/04/13 08:00:24;;;;;;;19.80;10.47;;;13.80;99.90;;;;;;5008946;28;20945;-52
2022/04/13 08:02:50;;;;;;;14.03;10.60;;;14.20;99.90;;;;;;5013697;28;20591;-53
2022/04/13 08:05:17;;;;;;;17.47;10.80;;;14.50;99.90;;;;;;4998362;28;21074;-52
2022/04/13 08:07:44;;;;;;;16.90;11.50;;;14.60;99.90;;;;;;4993562;28;20898;-52
2022/04/13 08:10:11;;;;;;;19.67;11.60;;;14.60;99.90;;;;;;4994417;28;20476;-51
2022/04/13 08:12:39;;;;;;;18.67;11.53;;;14.70;99.90;;;;;;4994134;28;20488;-52
2022/04/13 08:15:09;;;;;;;17.00;12.17;;;14.50;99.90;;;;;;4994109;28;20459;-51
2022/04/13 08:17:38;;;;;;;16.93;10.53;;;14.50;99.90;;;;;;5013035;28;20514;-54
2022/04/13 08:20:06;;;;;;;13.60;9.70;;;14.70;99.90;;;;;;5013371;28;20455;-54
2022/04/13 08:22:33;;;;;;;14.50;11.00;;;14.80;99.90;;;;;;5013439;28;20456;-54
2022/04/13 08:24:59;;;;;;;21.40;11.30;;;14.80;99.90;;;;;;5012622;28;20479;-53
2022/04/13 08:27:26;;;;;;;23.27;11.20;;;15.10;99.90;;;;;;5012986;28;20468;-54
2022/04/13 08:29:53;;;;;;;18.53;13.17;;;15.20;99.90;;;;;;5013214;28;20506;-54
2022/04/13 08:32:21;;;;;;;16.97;10.80;;;15.10;99.90;;;;;;5012073;28;21004;-54
2022/04/13 08:34:52;;;;;;;19.53;12.03;;;15.00;99.90;;;;;;5012510;28;20447;-53
2022/04/13 08:37:18;;;;;;;14.47;11.13;;;15.00;99.90;;;;;;5013114;28;20467;-54
2022/04/13 08:39:45;;;;;;;18.93;10.77;;;15.00;99.90;;;;;;5013019;28;20818;-54
2022/04/13 08:42:13;;;;;;;18.10;10.67;;;15.00;99.90;;;;;;5013156;28;20501;-53
2022/04/13 08:44:52;;;;;;;29.73;10.90;;;15.10;99.90;;;;;;5012713;28;20513;-54
2022/04/13 08:47:21;;;;;;;15.80;10.17;;;15.40;99.90;;;;;;5012747;28;21005;-55
2022/04/13 08:49:50;;;;;;;14.90;11.30;;;15.50;99.90;;;;;;5012373;28;20518;-54
2022/04/13 08:52:20;;;;;;;18.13;12.03;;;16.00;99.90;;;;;;4997628;28;20448;-54
2022/04/13 08:54:56;;;;;;;18.13;11.20;;;16.10;99.90;;;;;;4993306;28;20796;-54
2022/04/13 08:57:25;;;;;;;18.07;12.70;;;16.40;99.90;;;;;;4993149;28;20526;-53
2022/04/13 09:00:02;;;;;;;15.70;9.97;;;16.40;99.90;;;;;;4993360;28;20876;-53
2022/04/13 09:02:56;;;;;;;18.00;11.30;;;15.90;99.90;;;;;;4993108;28;20480;-54
2022/04/13 09:05:26;;;;;;;20.43;12.30;;;16.50;99.90;;;;;;5000033;28;20502;-54
2022/04/13 09:08:05;;;;;;;18.50;11.47;;;17.00;99.90;;;;;;5012295;28;20495;-54
2022/04/13 09:10:32;;;;;;;20.27;12.60;;;17.50;99.90;;;;;;5012765;28;20459;-54
2022/04/13 09:13:00;;;;;;;14.70;11.20;;;17.60;99.90;;;;;;5012595;28;20815;-54
2022/04/13 09:15:26;;;;;;;19.20;11.60;;;18.10;99.90;;;;;;5012503;28;20478;-53
2022/04/13 09:17:55;;;;;;;16.20;10.37;;;17.30;99.90;;;;;;5011609;28;20532;-54
2022/04/13 09:20:21;;;;;;;14.20;10.37;;;17.70;99.90;;;;;;5004812;28;21265;-52
2022/04/13 09:22:51;;;;;;;14.27;10.37;;;17.90;99.90;;;;;;5030245;28;20748;-54
2022/04/13 09:25:20;;;;;;;18.50;11.30;;;18.20;99.90;;;;;;5031881;28;20521;-54
2022/04/13 09:27:48;;;;;;;14.70;10.40;;;18.00;99.90;;;;;;5030621;28;20469;-54
2022/04/13 09:30:15;;;;;;;22.07;11.60;;;18.00;99.90;;;;;;5027380;28;20479;-54
2022/04/13 09:32:42;;;;;;;16.67;10.47;;;18.00;99.90;;;;;;5012207;28;20482;-53
2022/04/13 09:35:10;;;;;;;51.17;11.67;;;18.10;99.90;;;;;;5011873;28;20483;-53
2022/04/13 09:37:37;;;;;;;16.70;10.70;;;19.10;99.90;;;;;;5012067;28;20590;-52
2022/04/13 09:40:05;;;;;;;15.87;10.70;;;19.30;99.90;;;;;;5012405;28;20479;-53
2022/04/13 09:42:31;;;;;;;16.73;10.70;;;19.40;99.90;;;;;;5011967;28;20480;-53
2022/04/13 09:45:02;;;;;;;17.00;10.10;;;19.50;99.90;;;;;;5011917;28;20546;-54
2022/04/13 09:47:30;;;;;;;20.20;10.57;;;19.40;99.90;;;;;;5011469;28;20474;-53
2022/04/13 09:49:57;;;;;;;21.40;11.43;;;18.90;99.90;;;;;;5012059;28;20454;-53
2022/04/13 09:52:32;;;;;;;15.93;11.00;;;18.20;99.90;;;;;;5012037;28;20496;-53
2022/04/13 09:54:59;;;;;;;18.43;11.90;;;18.90;99.90;;;;;;5012259;28;20486;-54
2022/04/13 09:57:26;;;;;;;15.20;10.37;;;19.00;99.90;;;;;;5011732;28;20499;-54
2022/04/13 09:59:57;;;;;;;20.47;11.47;;;19.50;99.90;;;;;;5011894;28;20502;-54
2022/04/13 10:02:37;;;;;;;18.90;11.60;;;19.60;99.90;;;;;;5011909;28;20938;-53
2022/04/13 10:05:05;;;;;;;18.73;10.53;;;18.90;99.90;;;;;;5011617;28;22764;-53
2022/04/13 10:07:34;;;;;;;16.83;11.43;;;19.40;99.90;;;;;;5011511;28;20516;-53
2022/04/13 10:10:00;;;;;;;14.40;10.07;;;19.70;99.90;;;;;;5011847;28;20479;-53
2022/04/13 10:12:27;;;;;;;15.77;10.90;;;20.20;99.90;;;;;;5011773;28;20486;-54
2022/04/13 10:14:53;;;;;;;16.30;11.10;;;20.80;99.90;;;;;;5011539;28;20988;-53
2022/04/13 10:17:20;;;;;;;17.83;12.00;;;21.00;99.90;;;;;;5011634;28;20507;-53
2022/04/13 10:19:54;;;;;;;19.97;11.37;;;22.00;99.90;;;;;;5011038;28;20830;-54
2022/04/13 10:22:21;;;;;;;17.13;11.43;;;22.30;99.90;;;;;;5011730;28;20942;-53
2022/04/13 10:24:49;;;;;;;12.50;9.63;;;21.70;99.90;;;;;;4999569;28;20460;-54
2022/04/13 10:27:17;;;;;;;19.63;11.03;;;21.60;99.90;;;;;;4992102;28;20547;-53
2022/04/13 10:29:46;;;;;;;19.40;11.03;;;21.00;99.90;;;;;;4992237;28;20539;-53
2022/04/13 10:32:14;;;;;;;17.30;11.00;;;20.80;99.90;;;;;;4992098;28;20472;-54
2022/04/13 10:34:43;;;;;;;14.70;11.50;;;21.20;99.90;;;;;;4992045;28;20619;-53
2022/04/13 10:37:12;;;;;;;16.20;10.80;;;21.30;99.90;;;;;;5000643;28;20506;-54
2022/04/13 10:39:40;;;;;;;13.30;9.90;;;21.20;99.90;;;;;;5009723;28;20542;-54
2022/04/13 10:42:10;;;;;;;22.00;12.00;;;21.50;99.90;;;;;;5011596;28;20448;-54
2022/04/13 10:44:38;;;;;;;17.80;11.23;;;21.20;99.90;;;;;;5011621;28;20479;-54
2022/04/13 10:47:06;;;;;;;18.23;11.80;;;20.90;99.90;;;;;;5012536;28;20519;-54
2022/04/13 10:49:40;;;;;;;18.63;9.90;;;21.10;99.90;;;;;;5014788;28;20443;-53
2022/04/13 10:52:10;;;;;;;16.27;10.63;;;21.20;99.90;;;;;;5014907;28;20479;-53
2022/04/13 10:54:38;;;;;;;13.00;10.40;;;21.90;99.90;;;;;;5014698;28;20491;-53
2022/04/13 10:57:07;;;;;;;19.57;10.53;;;22.60;99.90;;;;;;5003574;28;20500;-54
2022/04/13 10:59:48;;;;;;;14.80;9.77;;;22.40;99.90;;;;;;5002500;28;20486;-53
2022/04/13 11:02:27;;;;;;;17.53;9.90;;;21.60;99.90;;;;;;5014909;28;20471;-51
2022/04/13 11:04:56;;;;;;;12.83;9.43;;;21.30;99.90;;;;;;5014603;28;20447;-51
2022/04/13 11:07:24;;;;;;;18.70;9.93;;;21.90;99.90;;;;;;5014740;28;20523;-50
2022/04/13 11:09:54;;;;;;;15.30;10.70;;;22.00;99.90;;;;;;5014162;28;20444;-50
2022/04/13 11:12:21;;;;;;;19.77;10.90;;;21.70;99.90;;;;;;5015242;28;20479;-50
2022/04/13 11:14:52;;;;;;;16.63;10.07;;;21.00;99.90;;;;;;5015414;28;20486;-51
2022/04/13 11:17:26;;;;;;;20.50;10.03;;;20.90;99.90;;;;;;5014861;28;20511;-51
2022/04/13 11:20:21;;;;;;;13.97;10.40;;;20.90;99.90;;;;;;5014487;28;20447;-50
2022/04/13 11:23:07;;;;;;;15.23;10.20;;;20.90;99.90;;;;;;5031461;28;20580;-50
2022/04/13 11:25:45;;;;;;;15.90;9.20;;;20.70;99.90;;;;;;5034021;28;20999;-51
2022/04/13 11:28:11;;;;;;;26.70;10.70;;;20.80;99.90;;;;;;5015626;28;20455;-50
2022/04/13 11:31:01;;;;;;;16.70;9.07;;;20.90;99.90;;;;;;5014397;28;20501;-51
2022/04/13 11:33:40;;;;;;;13.93;9.47;;;20.90;99.90;;;;;;5014277;28;20439;-50
2022/04/13 11:36:07;;;;;;;16.00;8.27;;;20.80;99.90;;;;;;5014136;28;20494;-51
2022/04/13 11:38:36;;;;;;;11.70;8.50;;;20.60;99.90;;;;;;5013994;28;20474;-50
2022/04/13 11:41:07;;;;;;;15.37;9.80;;;20.50;99.90;;;;;;5015002;28;20447;-50
2022/04/13 11:43:33;;;;;;;14.50;9.10;;;21.00;99.90;;;;;;5014574;28;20478;-50
2022/04/13 11:46:01;;;;;;;17.20;9.10;;;21.00;99.90;;;;;;5009564;28;20512;-50
2022/04/13 11:48:34;;;;;;;15.83;8.23;;;21.10;99.90;;;;;;4994066;28;20534;-50
2022/04/13 11:51:26;;;;;;;11.23;7.90;;;21.20;99.90;;;;;;4994496;28;20455;-50
2022/04/13 11:53:54;;;;;;;9.50;7.33;;;21.40;99.90;;;;;;4994342;28;20444;-51
2022/04/13 11:56:32;;;;;;;18.83;7.87;;;21.50;99.90;;;;;;4994360;28;20456;-50
2022/04/13 11:58:59;;;;;;;11.13;8.10;;;21.40;99.90;;;;;;4992918;28;20479;-50
2022/04/13 12:01:27;;;;;;;12.03;7.07;;;21.70;99.90;;;;;;5012134;28;21011;-50
2022/04/13 12:03:55;;;;;;;16.00;8.20;;;22.30;99.90;;;;;;5013842;28;20447;-51
2022/04/13 12:06:24;;;;;;;11.53;8.10;;;21.80;99.90;;;;;;5013739;28;20511;-50
2022/04/13 12:08:53;;;;;;;11.63;7.60;;;22.20;99.90;;;;;;5013438;28;20459;-50
2022/04/13 12:11:21;;;;;;;9.17;6.90;;;22.40;99.90;;;;;;5013526;28;20476;-50
2022/04/13 12:13:50;;;;;;;8.60;7.60;;;22.90;99.90;;;;;;5013659;28;20447;-51
2022/04/13 12:16:19;;;;;;;8.70;7.33;;;23.30;99.90;;;;;;5013029;28;20475;-51
2022/04/13 12:18:47;;;;;;;8.43;6.93;;;23.70;99.90;;;;;;5013081;28;20451;-50
2022/04/13 12:21:15;;;;;;;10.43;7.17;;;23.20;99.90;;;;;;5013421;28;20450;-50
2022/04/13 12:23:42;;;;;;;9.30;7.20;;;23.00;99.90;;;;;;5013462;28;20580;-51
2022/04/13 12:26:09;;;;;;;12.43;7.73;;;22.80;99.90;;;;;;5014444;28;20935;-50
2022/04/13 12:28:36;;;;;;;11.10;7.07;;;21.90;99.90;;;;;;5016881;28;20450;-50
2022/04/13 12:31:06;;;;;;;13.77;8.00;;;22.50;99.90;;;;;;5015050;28;20858;-50
2022/04/13 12:33:33;;;;;;;17.93;7.40;;;22.60;99.90;;;;;;5013090;28;20448;-50
2022/04/13 12:36:03;;;;;;;10.30;6.87;;;22.50;99.90;;;;;;5013007;28;20483;-50
2022/04/13 12:38:31;;;;;;;13.00;6.50;;;22.50;99.90;;;;;;5012655;28;20506;-50
2022/04/13 12:41:12;;;;;;;21.93;6.87;;;22.00;99.90;;;;;;5013215;28;20478;-50